Time;durP1;ratioP1;P1;durP2;ratioP2;P2;SDS_P1;SDS_P2;PMS_P1;PMS_P2;Temp;Humidity;BMP_temperature;BMP_pressure;BME280_temperature;BME280_humidity;BME280_pressure;Samples;Min_cycle;Max_cycle;Signal;HPM_P1;HPM_P2
2022/08/31 00:04:01;;;;;;;4.60;2.70;;;;;;;23.90;41.84;99601.38;342241;28;1027;-71
2022/08/31 00:04:14;;;;;;;4.07;2.67;;;;;;;23.86;42.00;99611.41;342783;28;1781;-71
2022/08/31 00:04:27;;;;;;;4.07;2.60;;;;;;;23.86;41.64;99611.41;342503;28;1906;-71
2022/08/31 00:04:40;;;;;;;3.85;2.60;;;;;;;23.87;41.72;99613.13;341995;28;1748;-71
2022/08/31 00:04:54;;;;;;;4.38;2.67;;;;;;;23.85;41.83;99609.75;342965;28;2210;-71
2022/08/31 00:05:07;;;;;;;3.63;2.67;;;;;;;23.86;41.60;99616.72;342875;28;2199;-71
2022/08/31 00:05:20;;;;;;;3.63;2.47;;;;;;;23.80;41.77;99614.63;343825;28;1219;-70
2022/08/31 00:05:32;;;;;;;4.32;2.40;;;;;;;23.79;41.57;99620.91;343349;28;2182;-71
2022/08/31 00:05:44;;;;;;;4.07;2.55;;;;;;;23.80;41.70;99622.59;344076;28;1885;-70
2022/08/31 00:05:59;;;;;;;6.68;2.90;;;;;;;23.81;41.79;99618.97;345139;28;1324;-69
2022/08/31 00:06:11;;;;;;;6.80;3.13;;;;;;;23.78;41.92;99621.88;345020;28;1091;-70
2022/08/31 00:06:23;;;;;;;4.40;2.78;;;;;;;23.70;41.80;99619.03;343680;28;1215;-69
2022/08/31 00:06:35;;;;;;;3.42;2.63;;;;;;;23.69;42.17;99625.34;344898;28;1296;-71
2022/08/31 00:06:49;;;;;;;3.45;2.63;;;;;;;23.67;42.37;99628.13;344294;28;1666;-70
2022/08/31 00:07:04;;;;;;;3.60;2.78;;;;;;;23.59;41.85;99635.06;344091;28;2397;-71
2022/08/31 00:07:16;;;;;;;3.85;2.90;;;;;;;23.41;42.47;99638.34;344809;28;1202;-70
2022/08/31 00:07:30;;;;;;;3.90;2.80;;;;;;;23.22;42.75;99638.22;344898;28;1171;-70
2022/08/31 00:07:42;;;;;;;4.85;2.83;;;;;;;23.28;43.23;99648.31;343562;28;1814;-71
2022/08/31 00:07:54;;;;;;;4.82;2.95;;;;;;;23.31;42.72;99640.09;344654;28;1958;-72
2022/08/31 00:08:07;;;;;;;3.63;2.88;;;;;;;23.28;42.79;99645.66;343411;28;1051;-72
2022/08/31 00:08:19;;;;;;;4.35;2.78;;;;;;;23.32;42.53;99647.09;343155;28;2144;-70
2022/08/31 00:08:31;;;;;;;5.47;2.80;;;;;;;23.33;42.86;99651.44;343062;28;1519;-71
2022/08/31 00:08:43;;;;;;;6.43;2.80;;;;;;;23.34;42.84;99647.78;341733;28;1756;-72
2022/08/31 00:08:56;;;;;;;5.15;2.80;;;;;;;23.36;42.90;99645.00;341144;28;1908;-72
2022/08/31 00:09:08;;;;;;;3.95;2.70;;;;;;;23.40;42.52;99649.06;341208;28;2077;-70
2022/08/31 00:09:20;;;;;;;4.32;2.65;;;;;;;23.41;42.65;99648.94;341526;28;1245;-71
2022/08/31 00:09:32;;;;;;;3.78;2.60;;;;;;;23.42;42.48;99649.78;340995;29;1079;-71
2022/08/31 00:09:44;;;;;;;3.63;2.67;;;;;;;23.43;42.70;99651.47;340807;29;1100;-70
2022/08/31 00:09:56;;;;;;;4.22;2.90;;;;;;;23.44;42.60;99661.97;340746;29;1352;-72
2022/08/31 00:10:14;;;;;;;6.72;2.90;;;;;;;23.37;42.54;99655.50;341620;28;1541;-72
2022/08/31 00:10:28;;;;;;;6.80;2.78;;;;;;;23.27;42.85;99659.91;345153;28;1207;-72
2022/08/31 00:10:48;;;;;;;5.20;2.90;;;;;;;23.23;43.11;99656.69;343259;28;1532;-71
2022/08/31 00:11:00;;;;;;;5.90;2.80;;;;;;;23.24;42.37;99662.81;342751;28;1757;-71
2022/08/31 00:11:13;;;;;;;3.97;2.53;;;;;;;23.26;43.06;99656.44;343475;28;1260;-75
2022/08/31 00:11:29;;;;;;;4.72;2.60;;;;;;;23.22;43.28;99659.44;341851;28;1740;-74
2022/08/31 00:11:42;;;;;;;5.00;2.70;;;;;;;23.23;43.05;99656.69;341004;28;1812;-73
2022/08/31 00:11:54;;;;;;;3.75;2.60;;;;;;;23.18;43.09;99658.91;341073;28;1228;-74
2022/08/31 00:12:06;;;;;;;3.60;2.53;;;;;;;23.18;43.01;99671.28;342661;28;725;-76
2022/08/31 00:12:19;;;;;;;3.55;2.60;;;;;;;23.15;43.63;99663.63;341813;28;1351;-72
2022/08/31 00:12:32;;;;;;;3.97;2.67;;;;;;;23.07;43.31;99656.31;340715;28;1809;-73
2022/08/31 00:12:46;;;;;;;4.35;2.78;;;;;;;23.02;43.52;99663.78;341034;28;2006;-71
2022/08/31 00:12:59;;;;;;;4.50;2.90;;;;;;;22.98;44.05;99657.91;342143;28;1914;-73
2022/08/31 00:13:12;;;;;;;4.05;3.00;;;;;;;23.03;43.78;99662.84;342279;28;1170;-73
2022/08/31 00:13:26;;;;;;;4.88;2.90;;;;;;;22.93;44.16;99665.38;342549;28;1229;-73
2022/08/31 00:13:41;;;;;;;5.18;2.80;;;;;;;22.94;44.09;99657.31;340849;29;1637;-75
2022/08/31 00:13:59;;;;;;;5.22;2.80;;;;;;;22.95;44.12;99663.44;342175;28;1703;-72
2022/08/31 00:14:11;;;;;;;6.32;2.85;;;;;;;22.99;43.71;99664.88;341439;28;1985;-72
2022/08/31 00:14:24;;;;;;;4.95;2.80;;;;;;;22.90;43.95;99673.63;341801;28;1405;-74
2022/08/31 00:14:37;;;;;;;5.53;2.80;;;;;;;23.00;43.48;99658.59;342163;28;1107;-74
2022/08/31 00:14:49;;;;;;;5.72;2.80;;;;;;;22.99;43.60;99664.03;341179;28;1664;-74
2022/08/31 00:15:02;;;;;;;5.55;2.80;;;;;;;23.00;43.60;99666.56;340644;28;1081;-73
2022/08/31 00:15:19;;;;;;;5.95;2.70;;;;;;;22.98;44.14;99665.00;341362;28;1617;-74
2022/08/31 00:15:36;;;;;;;5.45;2.92;;;;;;;23.00;43.87;99661.25;340047;29;1036;-76
2022/08/31 00:15:49;;;;;;;5.32;3.10;;;;;;;23.01;43.99;99662.94;342261;28;1810;-75
2022/08/31 00:16:02;;;;;;;5.13;3.03;;;;;;;22.99;43.49;99658.72;341708;28;1658;-74
2022/08/31 00:16:14;;;;;;;6.43;3.00;;;;;;;23.02;43.76;99651.41;343125;28;1880;-73
2022/08/31 00:16:30;;;;;;;5.72;2.90;;;;;;;22.97;44.13;99665.97;342818;28;1661;-75
2022/08/31 00:16:44;;;;;;;3.88;2.80;;;;;;;22.99;43.68;99659.56;344258;28;1761;-70
2022/08/31 00:16:56;;;;;;;4.53;2.80;;;;;;;23.03;43.35;99655.72;344881;28;1078;-74
2022/08/31 00:17:09;;;;;;;5.18;2.78;;;;;;;23.01;43.62;99657.63;343914;28;1214;-75
2022/08/31 00:17:21;;;;;;;4.90;2.72;;;;;;;23.01;43.66;99654.97;343845;28;1301;-72
2022/08/31 00:17:33;;;;;;;3.75;2.72;;;;;;;23.04;43.80;99657.41;343692;28;1064;-74
2022/08/31 00:17:45;;;;;;;4.40;2.70;;;;;;;23.06;44.03;99660.78;343293;28;1786;-76
2022/08/31 00:17:58;;;;;;;4.25;2.70;;;;;;;23.06;43.83;99660.78;343730;28;1437;-74
2022/08/31 00:18:10;;;;;;;4.45;2.90;;;;;;;23.09;43.53;99657.84;344075;28;1157;-74
2022/08/31 00:18:22;;;;;;;4.22;2.90;;;;;;;23.07;43.22;99659.78;342988;28;1185;-75
2022/08/31 00:18:34;;;;;;;4.50;2.75;;;;;;;23.07;42.97;99662.44;343167;28;1570;-75
2022/08/31 00:18:51;;;;;;;4.82;2.70;;;;;;;23.11;43.24;99652.41;344991;28;2022;-75
2022/08/31 00:19:04;;;;;;;4.70;2.80;;;;;;;23.15;43.31;99653.00;343941;28;1279;-75
2022/08/31 00:19:16;;;;;;;5.35;2.70;;;;;;;23.18;43.29;99647.44;343843;28;1200;-75
2022/08/31 00:19:28;;;;;;;5.07;2.67;;;;;;;23.21;43.51;99652.47;345132;28;1110;-75
2022/08/31 00:19:40;;;;;;;4.93;2.80;;;;;;;23.23;43.78;99658.50;344145;28;1763;-75
2022/08/31 00:19:52;;;;;;;5.18;2.78;;;;;;;23.26;43.44;99650.25;344647;28;1438;-74
2022/08/31 00:20:05;;;;;;;5.57;2.67;;;;;;;23.29;43.22;99650.84;344199;28;2184;-74
2022/08/31 00:20:21;;;;;;;4.53;2.70;;;;;;;23.33;43.06;99646.13;344141;28;1675;-75
2022/08/31 00:20:45;;;;;;;4.97;3.05;;;;;;;23.37;42.93;99652.84;343870;28;1742;-76
2022/08/31 00:20:57;;;;;;;4.85;2.80;;;;;;;23.38;42.80;99653.69;344278;28;1691;-74
2022/08/31 00:21:09;;;;;;;5.10;2.80;;;;;;;23.40;42.55;99647.28;344279;28;1517;-74
2022/08/31 00:21:25;;;;;;;4.90;2.80;;;;;;;23.44;42.69;99654.00;343290;28;1289;-74
2022/08/31 00:21:38;;;;;;;4.32;2.72;;;;;;;23.43;42.41;99654.97;343480;28;1153;-74
2022/08/31 00:21:50;;;;;;;4.22;2.63;;;;;;;23.39;42.68;99650.91;342331;28;1680;-74
2022/08/31 00:22:02;;;;;;;4.65;2.70;;;;;;;23.42;42.68;99653.31;343225;28;1011;-74
2022/08/31 00:22:14;;;;;;;4.25;2.70;;;;;;;23.43;42.36;99649.66;343497;28;1113;-74
2022/08/31 00:22:26;;;;;;;4.88;2.80;;;;;;;23.45;42.18;99652.19;343949;28;804;-75
2022/08/31 00:22:39;;;;;;;4.40;2.95;;;;;;;23.44;42.24;99656.66;343668;28;1761;-75
2022/08/31 00:22:51;;;;;;;4.55;2.85;;;;;;;23.44;42.14;99658.44;343264;28;1633;-75
2022/08/31 00:23:06;;;;;;;4.63;2.90;;;;;;;23.45;42.38;99654.84;343512;28;1332;-74
2022/08/31 00:23:19;;;;;;;5.22;2.95;;;;;;;23.44;42.71;99653.16;343491;28;1506;-76
2022/08/31 00:23:31;;;;;;;5.25;2.90;;;;;;;23.45;42.90;99663.63;343583;28;1189;-75
2022/08/31 00:23:43;;;;;;;4.82;2.80;;;;;;;23.47;42.50;99659.03;342472;28;1709;-76
2022/08/31 00:23:55;;;;;;;5.38;2.70;;;;;;;23.45;42.98;99658.31;343346;28;1704;-75
2022/08/31 00:24:07;;;;;;;5.30;2.58;;;;;;;23.47;42.75;99659.03;342017;28;1621;-74
2022/08/31 00:24:19;;;;;;;4.88;2.40;;;;;;;23.49;42.25;99657.09;342045;28;1850;-74
2022/08/31 00:24:32;;;;;;;4.28;2.40;;;;;;;23.49;42.79;99659.75;341972;28;1267;-75
2022/08/31 00:24:44;;;;;;;5.10;2.60;;;;;;;23.51;42.67;99655.13;341659;28;1775;-75
2022/08/31 00:24:57;;;;;;;4.88;2.60;;;;;;;23.55;42.68;99657.53;342446;28;1728;-74
2022/08/31 00:25:09;;;;;;;3.75;2.50;;;;;;;23.57;43.78;99658.25;343598;28;1022;-75
2022/08/31 00:25:22;;;;;;;4.22;2.60;;;;;;;23.57;44.15;99659.09;343229;28;1243;-74
2022/08/31 00:25:36;;;;;;;4.72;2.70;;;;;;;23.58;44.11;99660.75;343003;28;2096;-75
2022/08/31 00:25:49;;;;;;;3.97;2.63;;;;;;;23.57;43.96;99656.44;342474;28;2042;-75
2022/08/31 00:26:01;;;;;;;3.78;2.63;;;;;;;23.60;43.52;99657.97;344496;28;1793;-75
2022/08/31 00:26:13;;;;;;;5.47;2.72;;;;;;;23.63;43.61;99660.38;343613;28;1910;-76
2022/08/31 00:26:26;;;;;;;6.68;2.67;;;;;;;23.64;44.29;99656.72;343057;28;1431;-74
2022/08/31 00:26:39;;;;;;;6.32;2.65;;;;;;;23.66;43.29;99658.28;343028;28;1981;-75
2022/08/31 00:26:51;;;;;;;3.63;2.85;;;;;;;23.68;43.08;99650.16;343805;28;1458;-75
2022/08/31 00:27:03;;;;;;;3.50;2.92;;;;;;;23.70;43.11;99661.50;344469;28;1142;-75
2022/08/31 00:27:15;;;;;;;3.38;2.80;;;;;;;23.71;42.88;99657.88;343304;28;2050;-76
2022/08/31 00:27:27;;;;;;;2.97;2.60;;;;;;;23.73;43.03;99656.75;344547;28;1091;-74
2022/08/31 00:27:39;;;;;;;3.30;2.38;;;;;;;23.76;42.85;99658.31;344632;28;1592;-76
2022/08/31 00:27:51;;;;;;;3.20;2.35;;;;;;;23.78;43.19;99655.56;343714;28;1764;-75
2022/08/31 00:28:04;;;;;;;3.67;2.58;;;;;;;23.79;42.91;99663.38;343450;28;1075;-74
2022/08/31 00:28:17;;;;;;;3.80;2.97;;;;;;;23.77;42.98;99660.03;343576;28;1091;-75
2022/08/31 00:28:30;;;;;;;5.03;3.38;;;;;;;23.75;42.66;99667.25;342046;28;1067;-74
2022/08/31 00:28:42;;;;;;;5.03;3.25;;;;;;;23.68;42.47;99658.13;341803;28;2020;-75
2022/08/31 00:28:56;;;;;;;4.70;2.88;;;;;;;23.70;42.42;99658.84;341970;28;1922;-75
2022/08/31 00:29:09;;;;;;;4.38;2.70;;;;;;;23.69;42.20;99667.78;342138;28;1708;-75
2022/08/31 00:29:21;;;;;;;4.22;2.63;;;;;;;23.72;41.98;99664.84;340888;28;1666;-72
2022/08/31 00:29:33;;;;;;;4.70;2.55;;;;;;;23.70;42.28;99664.16;340870;29;1243;-74
2022/08/31 00:29:45;;;;;;;3.90;2.83;;;;;;;23.64;44.97;99664.69;341109;29;877;-71
2022/08/31 00:29:57;;;;;;;4.07;3.28;;;;;;;23.53;47.17;99674.41;340674;28;1708;-71
2022/08/31 00:30:11;;;;;;;5.53;3.58;;;;;;;23.51;47.48;99663.09;340954;28;1775;-71
2022/08/31 00:30:23;;;;;;;6.13;3.55;;;;;;;23.45;48.75;99650.38;341048;28;1764;-73
2022/08/31 00:30:36;;;;;;;5.97;3.60;;;;;;;23.43;49.19;99662.94;341887;28;1070;-71
2022/08/31 00:30:48;;;;;;;5.90;3.53;;;;;;;23.39;49.27;99669.47;340218;28;1764;-74
2022/08/31 00:31:00;;;;;;;5.28;3.50;;;;;;;23.29;49.61;99665.94;342236;28;1248;-73
2022/08/31 00:31:13;;;;;;;6.18;3.53;;;;;;;23.28;50.11;99664.22;343028;28;1308;-75
2022/08/31 00:31:26;;;;;;;9.65;3.75;;;;;;;23.30;50.12;99656.97;344184;28;1470;-74
2022/08/31 00:31:38;;;;;;;10.00;3.70;;;;;;;23.29;50.13;99668.56;344900;28;1062;-71
2022/08/31 00:31:50;;;;;;;5.78;3.58;;;;;;;23.26;50.35;99666.16;343253;28;1583;-74
2022/08/31 00:32:02;;;;;;;5.28;3.80;;;;;;;23.23;50.32;99664.63;342649;28;2048;-77
2022/08/31 00:32:14;;;;;;;7.50;4.00;;;;;;;23.14;50.39;99657.47;343444;28;1076;-71
2022/08/31 00:32:33;;;;;;;7.85;4.00;;;;;;;23.10;50.52;99656.88;343460;28;1092;-73
2022/08/31 00:32:45;;;;;;;6.10;3.83;;;;;;;23.05;50.89;99653.78;343066;28;1644;-75
2022/08/31 00:32:59;;;;;;;4.90;3.63;;;;;;;23.07;50.74;99651.84;344125;28;1560;-76
2022/08/31 00:33:12;;;;;;;4.68;3.67;;;;;;;22.97;51.55;99661.50;345175;28;999;-74
2022/08/31 00:33:24;;;;;;;6.05;3.97;;;;;;;23.00;51.58;99661.25;344370;28;1373;-73
2022/08/31 00:33:36;;;;;;;6.07;3.83;;;;;;;23.01;51.37;99652.31;342543;28;2068;-73
2022/08/31 00:33:51;;;;;;;4.15;3.67;;;;;;;22.95;52.29;99652.84;343981;28;1558;-75
2022/08/31 00:34:04;;;;;;;4.43;3.63;;;;;;;22.89;52.27;99656.00;343822;28;2107;-72
2022/08/31 00:34:16;;;;;;;5.57;3.75;;;;;;;22.81;52.51;99658.47;344836;28;1363;-75
2022/08/31 00:34:28;;;;;;;5.28;3.75;;;;;;;22.86;52.70;99653.63;343421;28;1238;-74
2022/08/31 00:34:39;;;;;;;6.55;3.83;;;;;;;22.87;52.65;99655.31;343042;28;1537;-76
2022/08/31 00:34:54;;;;;;;6.45;3.67;;;;;;;22.76;52.80;99653.56;342655;28;1750;-72
2022/08/31 00:35:07;;;;;;;6.78;3.97;;;;;;;22.78;53.11;99662.22;343430;28;1209;-73
2022/08/31 00:35:19;;;;;;;8.07;4.30;;;;;;;22.74;53.11;99661.63;343511;28;1368;-75
2022/08/31 00:35:34;;;;;;;8.40;4.20;;;;;;;22.76;53.26;99658.00;343611;28;1035;-75
2022/08/31 00:35:47;;;;;;;5.43;3.78;;;;;;;22.77;53.16;99654.41;341448;28;1736;-75
2022/08/31 00:35:59;;;;;;;4.45;3.90;;;;;;;22.71;53.36;99656.56;341631;28;1575;-75
2022/08/31 00:36:12;;;;;;;4.60;3.90;;;;;;;22.76;53.10;99658.00;341720;28;1482;-74
2022/08/31 00:36:25;;;;;;;5.68;3.97;;;;;;;22.74;53.67;99656.31;341714;28;1676;-76
2022/08/31 00:36:38;;;;;;;6.15;4.15;;;;;;;22.72;53.55;99658.28;342200;28;1824;-73
2022/08/31 00:36:50;;;;;;;5.95;4.13;;;;;;;22.70;53.93;99656.72;342184;28;1164;-74
2022/08/31 00:37:03;;;;;;;6.22;4.13;;;;;;;22.55;54.48;99661.47;341926;28;1707;-73
2022/08/31 00:37:16;;;;;;;5.80;4.22;;;;;;;22.59;54.48;99649.66;342375;28;1714;-74
2022/08/31 00:37:28;;;;;;;6.85;4.20;;;;;;;22.64;54.14;99660.72;343582;28;1099;-74
2022/08/31 00:37:40;;;;;;;6.05;4.05;;;;;;;22.65;54.20;99657.09;343051;28;1724;-74
2022/08/31 00:37:52;;;;;;;5.93;3.90;;;;;;;22.67;54.32;99662.25;342051;28;1721;-74
2022/08/31 00:38:05;;;;;;;5.13;3.95;;;;;;;22.59;54.38;99651.47;343497;28;1714;-75
2022/08/31 00:38:17;;;;;;;5.45;4.10;;;;;;;22.58;54.73;99658.56;343902;28;1741;-74
2022/08/31 00:38:29;;;;;;;5.43;4.30;;;;;;;22.57;54.86;99664.81;343658;28;1107;-74
2022/08/31 00:38:41;;;;;;;6.15;4.25;;;;;;;22.56;55.19;99663.16;343396;28;1749;-73
2022/08/31 00:38:54;;;;;;;6.47;4.45;;;;;;;22.59;54.65;99662.06;342496;28;1846;-75
2022/08/31 00:39:06;;;;;;;5.75;4.20;;;;;;;22.56;54.89;99668.47;342502;28;1112;-74
2022/08/31 00:39:18;;;;;;;5.70;4.13;;;;;;;22.58;54.85;99660.34;343215;28;1926;-74
2022/08/31 00:39:30;;;;;;;5.40;4.10;;;;;;;22.51;55.30;99662.69;343563;28;1515;-73
2022/08/31 00:39:42;;;;;;;4.97;4.15;;;;;;;22.50;55.12;99661.03;342898;28;1796;-74
2022/08/31 00:39:54;;;;;;;4.30;3.90;;;;;;;22.48;55.63;99662.94;343117;28;1733;-74
2022/08/31 00:40:08;;;;;;;4.55;4.10;;;;;;;22.42;55.61;99663.47;342325;28;1313;-74
2022/08/31 00:40:20;;;;;;;5.43;4.20;;;;;;;22.43;55.50;99665.13;343214;28;1286;-75
2022/08/31 00:40:33;;;;;;;5.95;4.22;;;;;;;22.41;56.05;99664.41;342573;28;1632;-74
2022/08/31 00:40:55;;;;;;;4.95;4.20;;;;;;;22.37;56.01;99657.69;342941;28;1678;-74
2022/08/31 00:41:09;;;;;;;5.18;4.30;;;;;;;22.37;55.71;99662.97;343484;28;1155;-74
2022/08/31 00:41:28;;;;;;;5.10;4.20;;;;;;;22.17;56.63;99662.75;343151;28;1689;-75
2022/08/31 00:41:40;;;;;;;6.05;4.28;;;;;;;22.18;56.60;99664.44;342148;28;1891;-74
2022/08/31 00:41:52;;;;;;;8.40;4.38;;;;;;;22.17;56.40;99660.09;343832;28;1590;-72
2022/08/31 00:42:06;;;;;;;8.50;4.30;;;;;;;22.19;56.44;99666.13;343823;28;1058;-71
2022/08/31 00:42:18;;;;;;;6.80;4.25;;;;;;;22.13;56.43;99666.59;343052;28;1520;-72
2022/08/31 00:42:31;;;;;;;6.00;4.30;;;;;;;22.14;56.63;99669.13;344212;28;1668;-75
2022/08/31 00:42:43;;;;;;;7.53;4.50;;;;;;;22.23;56.36;99658.78;342975;28;1658;-73
2022/08/31 00:42:55;;;;;;;7.43;4.60;;;;;;;22.04;56.90;99672.66;343556;28;1879;-73
2022/08/31 00:43:07;;;;;;;6.78;4.68;;;;;;;21.99;57.16;99664.22;345099;28;1552;-75
2022/08/31 00:43:42;;;;;;;6.18;4.50;;;;;;;22.07;56.94;99661.81;343219;28;1434;-74
2022/08/31 00:44:00;;;;;;;6.35;4.35;;;;;;;22.09;57.10;99659.88;343278;28;1535;-74
2022/08/31 00:44:12;;;;;;;6.95;4.72;;;;;;;21.98;57.38;99662.56;342125;28;1282;-73
2022/08/31 00:44:25;;;;;;;6.68;4.47;;;;;;;22.05;56.89;99658.44;342806;28;1621;-72
2022/08/31 00:44:38;;;;;;;6.03;4.35;;;;;;;22.03;57.31;99655.09;344034;28;1939;-75
2022/08/31 00:44:50;;;;;;;6.10;4.30;;;;;;;21.96;57.64;99664.50;343138;28;1556;-72
2022/08/31 00:45:05;;;;;;;5.75;4.50;;;;;;;21.95;57.78;99658.34;343474;28;1713;-76
2022/08/31 00:45:17;;;;;;;6.10;4.53;;;;;;;21.97;57.52;99677.56;341682;28;1841;-75
2022/08/31 00:45:29;;;;;;;6.75;4.78;;;;;;;21.92;57.73;99662.06;343126;28;1036;-74
2022/08/31 00:45:41;;;;;;;6.82;4.82;;;;;;;21.96;57.98;99662.69;343050;28;2015;-71
2022/08/31 00:45:53;;;;;;;6.35;4.78;;;;;;;21.97;57.97;99660.88;342569;28;1725;-71
2022/08/31 00:46:07;;;;;;;5.90;4.50;;;;;;;21.98;57.47;99662.56;343524;28;1059;-74
2022/08/31 00:46:24;;;;;;;5.55;4.30;;;;;;;22.02;57.35;99653.41;343701;28;1110;-73
2022/08/31 00:46:39;;;;;;;6.50;4.20;;;;;;;22.03;57.30;99660.38;343591;28;1258;-74
2022/08/31 00:46:51;;;;;;;7.72;4.53;;;;;;;21.91;57.96;99662.19;343492;28;1505;-75
2022/08/31 00:47:03;;;;;;;6.97;4.50;;;;;;;21.98;57.99;99668.69;343909;28;1126;-73
2022/08/31 00:47:15;;;;;;;6.22;4.13;;;;;;;21.94;57.80;99660.16;343916;28;1057;-73
2022/08/31 00:47:27;;;;;;;6.10;4.28;;;;;;;21.89;58.10;99664.97;341917;28;1744;-74
2022/08/31 00:47:39;;;;;;;6.22;4.40;;;;;;;21.88;58.20;99668.59;343508;28;1221;-72
2022/08/31 00:47:51;;;;;;;5.78;4.57;;;;;;;21.87;58.16;99661.63;343561;28;1530;-71
2022/08/31 00:48:03;;;;;;;5.28;4.55;;;;;;;21.87;58.18;99658.97;343297;28;1166;-73
2022/08/31 00:48:15;;;;;;;5.45;4.45;;;;;;;21.93;58.21;99663.78;343885;28;1073;-75
2022/08/31 00:48:27;;;;;;;6.18;4.13;;;;;;;21.94;58.56;99667.25;342273;28;1099;-73
2022/08/31 00:48:52;;;;;;;5.90;4.35;;;;;;;21.88;58.75;99657.16;342532;28;1581;-73
2022/08/31 00:49:16;;;;;;;5.10;4.60;;;;;;;21.93;58.41;99661.13;342641;28;1327;-74
2022/08/31 00:49:31;;;;;;;5.28;4.60;;;;;;;21.94;58.76;99657.50;343643;28;976;-75
2022/08/31 00:49:48;;;;;;;5.90;4.60;;;;;;;21.90;58.64;99656.06;342553;28;1745;-74
2022/08/31 00:50:03;;;;;;;7.07;4.70;;;;;;;21.81;59.26;99656.81;343570;28;1936;-73
2022/08/31 00:50:17;;;;;;;6.10;4.70;;;;;;;21.82;59.02;99662.94;343593;28;1127;-74
2022/08/31 00:50:29;;;;;;;5.72;4.50;;;;;;;21.84;58.69;99661.84;342028;28;2145;-74
2022/08/31 00:50:41;;;;;;;6.38;4.60;;;;;;;21.84;59.11;99656.56;341357;28;1817;-74
2022/08/31 00:50:54;;;;;;;6.50;4.60;;;;;;;21.73;59.62;99664.50;339499;29;1759;-74
2022/08/31 00:51:06;;;;;;;7.20;4.68;;;;;;;21.78;59.28;99662.34;340949;28;1776;-73
2022/08/31 00:51:23;;;;;;;8.85;4.90;;;;;;;21.78;59.44;99662.34;342068;28;1043;-75
2022/08/31 00:51:39;;;;;;;7.53;4.82;;;;;;;21.52;60.05;99652.00;340928;29;1061;-75
2022/08/31 00:51:57;;;;;;;5.60;4.60;;;;;;;21.54;60.55;99660.66;341736;28;1356;-75
2022/08/31 00:52:14;;;;;;;6.15;4.95;;;;;;;21.62;60.30;99656.56;339549;29;1359;-73
2022/08/31 00:52:31;;;;;;;9.20;5.03;;;;;;;21.66;60.25;99661.50;340322;28;2031;-74
2022/08/31 00:52:53;;;;;;;8.05;5.18;;;;;;;21.72;60.26;99662.81;341540;28;1731;-73
2022/08/31 00:53:05;;;;;;;7.88;5.30;;;;;;;21.71;60.49;99655.84;342004;28;1275;-74
2022/08/31 00:53:18;;;;;;;8.50;5.28;;;;;;;21.65;60.48;99656.31;342107;28;1208;-74
2022/08/31 00:53:30;;;;;;;8.07;4.80;;;;;;;21.54;61.27;99654.53;342828;28;1938;-75
2022/08/31 00:53:44;;;;;;;8.35;4.93;;;;;;;21.46;61.53;99663.06;344694;28;1818;-73
2022/08/31 00:53:57;;;;;;;7.63;5.25;;;;;;;21.46;61.51;99657.75;344406;28;2455;-74
2022/08/31 00:54:11;;;;;;;6.53;5.50;;;;;;;21.51;61.40;99655.63;342290;28;1043;-74
2022/08/31 00:54:31;;;;;;;5.97;5.13;;;;;;;21.53;61.04;99658.97;342593;28;1678;-75
2022/08/31 00:55:25;;;;;;;5.40;4.90;;;;;;;21.58;61.43;99660.44;343205;28;1513;-76
2022/08/31 00:55:37;;;;;;;5.90;4.70;;;;;;;21.58;61.21;99655.13;340554;28;1272;-74
2022/08/31 00:55:49;;;;;;;7.03;4.93;;;;;;;21.59;61.22;99651.50;339572;28;2036;-74
2022/08/31 00:56:01;;;;;;;7.88;5.00;;;;;;;21.58;61.76;99655.13;343028;28;1388;-74
2022/08/31 00:56:14;;;;;;;7.70;5.00;;;;;;;21.56;61.68;99657.06;343567;28;1281;-75
2022/08/31 00:56:26;;;;;;;5.78;4.93;;;;;;;21.52;61.79;99659.94;343353;28;1801;-74
2022/08/31 00:56:40;;;;;;;6.95;5.03;;;;;;;21.51;62.07;99657.41;344801;28;1283;-74
2022/08/31 00:56:53;;;;;;;7.03;5.18;;;;;;;21.52;62.03;99657.28;343644;28;1635;-74
2022/08/31 00:57:07;;;;;;;6.22;5.22;;;;;;;21.57;61.93;99658.72;343118;28;1732;-73
2022/08/31 00:57:20;;;;;;;6.37;5.10;;;;;;;21.58;61.91;99655.13;341746;28;1227;-75
2022/08/31 00:57:48;;;;;;;8.43;5.32;;;;;;;21.44;62.40;99657.03;341089;28;1964;-74
2022/08/31 00:58:09;;;;;;;8.85;5.30;;;;;;;21.39;62.62;99653.91;341783;28;1803;-76
2022/08/31 00:58:21;;;;;;;8.30;5.20;;;;;;;21.47;62.32;99648.88;341879;28;1197;-75
2022/08/31 00:58:33;;;;;;;7.53;5.28;;;;;;;21.47;62.72;99650.66;342252;28;1060;-74
2022/08/31 00:58:46;;;;;;;8.45;5.43;;;;;;;21.50;62.57;99653.91;343182;28;2054;-73
2022/08/31 00:59:06;;;;;;;9.40;5.32;;;;;;;21.47;62.55;99648.88;343359;28;1191;-74
2022/08/31 00:59:19;;;;;;;9.13;5.20;;;;;;;21.48;62.00;99655.00;341967;28;1286;-75
2022/08/31 00:59:32;;;;;;;8.50;5.03;;;;;;;21.41;62.85;99651.97;342559;28;1060;-74
2022/08/31 00:59:46;;;;;;;8.13;5.20;;;;;;;21.44;62.74;99649.13;342205;28;1690;-76
2022/08/31 01:00:00;;;;;;;6.05;4.97;;;;;;;21.47;62.90;99654.19;342237;28;1487;-74
2022/08/31 01:00:20;;;;;;;6.45;4.72;;;;;;;21.39;63.26;99648.63;342712;28;1255;-75
2022/08/31 01:00:33;;;;;;;14.40;5.55;;;;;;;21.42;62.60;99655.47;342193;28;1055;-74
2022/08/31 01:00:45;;;;;;;13.93;5.70;;;;;;;21.46;63.04;99649.84;341806;28;1051;-75
2022/08/31 01:00:58;;;;;;;8.38;5.40;;;;;;;21.47;62.84;99648.88;340695;29;1065;-74
2022/08/31 01:01:11;;;;;;;11.07;5.60;;;;;;;21.51;63.18;99655.63;340843;29;1016;-74
2022/08/31 01:01:23;;;;;;;10.30;5.43;;;;;;;21.48;62.93;99650.56;342855;28;1346;-73
2022/08/31 01:01:35;;;;;;;8.40;5.15;;;;;;;21.40;62.92;99657.38;343524;28;1057;-74
2022/08/31 01:01:48;;;;;;;8.48;5.35;;;;;;;21.43;63.33;99649.22;341402;28;1817;-74
2022/08/31 01:02:00;;;;;;;8.93;5.60;;;;;;;21.46;63.18;99649.00;342341;28;1461;-74
2022/08/31 01:02:12;;;;;;;7.70;5.43;;;;;;;21.49;62.62;99654.91;342073;28;1144;-74
2022/08/31 01:02:24;;;;;;;7.22;5.20;;;;;;;21.38;63.32;99659.31;344710;28;1218;-74
2022/08/31 01:02:37;;;;;;;7.97;5.00;;;;;;;21.38;63.22;99654.84;342304;28;1756;-74
2022/08/31 01:02:49;;;;;;;8.10;5.10;;;;;;;21.44;63.40;99654.41;341920;28;1863;-75
2022/08/31 01:03:04;;;;;;;6.82;5.40;;;;;;;21.43;63.17;99658.03;342562;28;1445;-74
2022/08/31 01:03:18;;;;;;;7.38;5.47;;;;;;;21.47;63.52;99653.31;343240;28;1273;-75
2022/08/31 01:03:30;;;;;;;7.38;5.20;;;;;;;21.48;63.31;99655.84;343363;28;1310;-73
2022/08/31 01:03:42;;;;;;;7.25;5.10;;;;;;;21.46;63.30;99652.47;343205;28;1748;-75
2022/08/31 01:03:56;;;;;;;8.13;5.38;;;;;;;21.44;63.74;99654.41;344399;28;1816;-74
2022/08/31 01:04:08;;;;;;;9.13;5.65;;;;;;;21.41;63.61;99651.97;344685;28;1074;-74
2022/08/31 01:04:21;;;;;;;10.35;5.60;;;;;;;21.37;63.97;99657.59;344167;28;1216;-74
2022/08/31 01:04:33;;;;;;;9.80;5.40;;;;;;;21.40;63.76;99658.22;343051;28;1067;-74
2022/08/31 01:04:45;;;;;;;6.18;5.05;;;;;;;21.37;63.97;99653.19;341515;28;1431;-75
2022/08/31 01:04:57;;;;;;;6.20;5.18;;;;;;;21.34;64.04;99656.88;342024;28;1100;-74
2022/08/31 01:05:12;;;;;;;5.88;5.10;;;;;;;21.35;64.03;99655.09;343383;28;1012;-74
2022/08/31 01:05:24;;;;;;;7.53;5.35;;;;;;;21.37;64.03;99655.81;343200;28;1190;-74
2022/08/31 01:05:38;;;;;;;7.57;5.22;;;;;;;21.36;63.81;99656.78;343170;28;1128;-75
2022/08/31 01:05:50;;;;;;;7.30;5.50;;;;;;;21.36;63.97;99656.78;339220;28;2925;-75
2022/08/31 01:06:03;;;;;;;7.13;5.50;;;;;;;21.39;63.87;99656.53;341076;28;1884;-74
2022/08/31 01:06:16;;;;;;;7.93;5.30;;;;;;;21.40;63.81;99652.91;341034;28;1866;-74
2022/08/31 01:06:28;;;;;;;7.07;5.20;;;;;;;21.35;63.88;99661.22;342201;28;1419;-74
2022/08/31 01:06:42;;;;;;;6.72;5.20;;;;;;;21.35;64.29;99663.03;342207;28;1562;-75
2022/08/31 01:06:55;;;;;;;9.20;5.07;;;;;;;21.36;64.02;99654.13;340657;29;1809;-74
2022/08/31 01:07:07;;;;;;;8.50;4.90;;;;;;;21.40;63.95;99652.09;341162;29;789;-74
2022/08/31 01:07:19;;;;;;;6.47;4.97;;;;;;;21.42;64.07;99650.16;342023;28;1329;-74
2022/08/31 01:07:31;;;;;;;7.75;5.20;;;;;;;21.42;63.73;99656.28;341606;28;1832;-75
2022/08/31 01:07:48;;;;;;;7.80;5.30;;;;;;;21.45;63.75;99655.22;341837;28;1775;-74
2022/08/31 01:08:02;;;;;;;6.85;5.20;;;;;;;21.40;64.06;99652.91;343074;28;1232;-73
2022/08/31 01:08:14;;;;;;;7.03;5.30;;;;;;;21.31;64.63;99658.94;343531;28;1794;-74
2022/08/31 01:08:26;;;;;;;8.20;5.50;;;;;;;21.33;64.56;99655.22;343425;28;1244;-75
2022/08/31 01:08:44;;;;;;;7.53;5.45;;;;;;;21.37;64.22;99652.31;340784;28;1662;-75
2022/08/31 01:08:58;;;;;;;7.03;5.50;;;;;;;21.25;65.02;99649.69;342694;28;1864;-74
2022/08/31 01:09:12;;;;;;;7.47;5.40;;;;;;;21.36;64.36;99646.19;342624;28;1805;-75
2022/08/31 01:09:29;;;;;;;7.55;5.53;;;;;;;21.42;64.51;99652.81;344797;28;1283;-75